createdAt,value
2018-03-08T00:00:12.099Z,0
2018-03-08T00:01:11.572Z,0
2018-03-08T00:02:11.825Z,0
2018-03-08T00:03:11.835Z,0
2018-03-08T00:04:11.784Z,0
2018-03-08T00:05:11.505Z,0
2018-03-08T00:06:11.748Z,0
2018-03-08T00:07:11.742Z,0
2018-03-08T00:08:11.975Z,0
2018-03-08T00:09:11.449Z,0
2018-03-08T00:10:11.687Z,0
2018-03-08T00:11:11.153Z,0
2018-03-08T00:12:11.656Z,0
2018-03-08T00:13:11.399Z,0
2018-03-08T00:14:11.622Z,0
2018-03-08T00:15:11.347Z,0
2018-03-08T00:16:11.074Z,0
2018-03-08T00:17:11.321Z,0
2018-03-08T00:18:11.825Z,0
2018-03-08T00:19:11.353Z,0
2018-03-08T00:20:11.524Z,0
2018-03-08T00:21:11.246Z,0
2018-03-08T00:22:11.751Z,0
2018-03-08T00:23:11.223Z,0
2018-03-08T00:24:11.458Z,0
2018-03-08T00:25:11.503Z,0
2018-03-08T00:26:11.423Z,0
2018-03-08T00:27:11.413Z,0
2018-03-08T00:28:11.136Z,0
2018-03-08T00:29:11.375Z,0
2018-03-08T00:30:11.364Z,0
2018-03-08T00:31:11.351Z,0
2018-03-08T00:32:11.345Z,0
2018-03-08T00:33:11.059Z,0
2018-03-08T00:34:11.300Z,0
2018-03-08T00:35:11.545Z,0
2018-03-08T00:36:11.263Z,0
2018-03-08T00:37:11.253Z,0
2018-03-08T00:38:11.240Z,0
2018-03-08T00:39:11.215Z,0
2018-03-08T00:40:11.457Z,0
2018-03-08T00:41:10.667Z,0
2018-03-08T00:42:10.908Z,0
2018-03-08T00:43:11.157Z,0
2018-03-08T00:44:10.359Z,0
2018-03-08T00:45:10.865Z,0
2018-03-08T00:46:11.105Z,0
2018-03-08T00:47:11.190Z,0
2018-03-08T00:48:10.804Z,0
2018-03-08T00:49:11.052Z,0
2018-03-08T00:50:11.038Z,0
2018-03-08T00:51:11.016Z,0
2018-03-08T00:52:10.739Z,0
2018-03-08T00:53:11.242Z,0
2018-03-08T00:54:10.979Z,0
2018-03-08T00:55:11.202Z,0
2018-03-08T00:56:11.185Z,0
2018-03-08T00:57:10.665Z,0
2018-03-08T00:58:10.907Z,0
2018-03-08T00:59:11.154Z,0
2018-03-08T01:00:11.121Z,0
2018-03-08T01:01:10.598Z,0
2018-03-08T01:02:10.840Z,0
2018-03-08T01:03:10.823Z,0
2018-03-08T01:04:10.827Z,0
2018-03-08T01:05:10.793Z,0
2018-03-08T01:06:11.026Z,0
2018-03-08T01:07:10.759Z,0
2018-03-08T01:08:11.074Z,0
2018-03-08T01:09:10.736Z,0
2018-03-08T01:10:10.185Z,0
2018-03-08T01:11:10.685Z,0
2018-03-08T01:12:10.678Z,0
2018-03-08T01:13:10.654Z,0
2018-03-08T01:14:10.650Z,0
2018-03-08T01:15:10.627Z,0
2018-03-08T01:16:10.864Z,0
2018-03-08T01:17:10.591Z,0
2018-03-08T01:18:10.828Z,0
2018-03-08T01:19:10.814Z,0
2018-03-08T01:20:10.544Z,0
2018-03-08T01:21:10.528Z,0
2018-03-08T01:22:10.514Z,0
2018-03-08T01:23:10.239Z,0
2018-03-08T01:24:10.732Z,0
2018-03-08T01:25:10.468Z,0
2018-03-08T01:26:10.445Z,0
2018-03-08T01:27:10.692Z,0
2018-03-08T01:28:10.673Z,0
2018-03-08T01:29:10.657Z,0
2018-03-08T01:30:10.118Z,0
2018-03-08T01:31:10.364Z,0
2018-03-08T01:32:10.350Z,0
2018-03-08T01:33:10.132Z,0
2018-03-08T01:34:10.065Z,0
2018-03-08T01:35:10.301Z,0
2018-03-08T01:36:10.038Z,0
2018-03-08T01:37:09.759Z,0
2018-03-08T01:38:10.519Z,0
2018-03-08T01:39:09.979Z,0
2018-03-08T01:40:10.016Z,0
2018-03-08T01:41:10.200Z,0
2018-03-08T01:42:09.671Z,0
2018-03-08T01:43:09.909Z,0
2018-03-08T01:44:10.418Z,0
2018-03-08T01:45:10.218Z,0
2018-03-08T01:46:09.862Z,0
2018-03-08T01:47:10.115Z,0
2018-03-08T01:48:09.835Z,0
2018-03-08T01:49:10.334Z,0
2018-03-08T01:50:10.066Z,0
2018-03-08T01:51:09.783Z,0
2018-03-08T01:52:09.764Z,0
2018-03-08T01:53:09.755Z,0
2018-03-08T01:54:10.254Z,0
2018-03-08T01:55:10.016Z,0
2018-03-08T01:56:10.231Z,0
2018-03-08T01:57:09.170Z,0
2018-03-08T01:58:09.414Z,0
2018-03-08T01:59:09.660Z,0
2018-03-08T02:00:09.894Z,0
2018-03-08T02:01:09.377Z,0
2018-03-08T02:02:09.874Z,0
2018-03-08T02:03:09.847Z,0
2018-03-08T02:04:09.834Z,0
2018-03-08T02:05:09.827Z,0
2018-03-08T02:06:09.799Z,0
2018-03-08T02:07:09.788Z,0
2018-03-08T02:08:09.769Z,0
2018-03-08T02:09:09.500Z,0
2018-03-08T02:10:09.483Z,0
2018-03-08T02:11:09.713Z,0
2018-03-08T02:12:09.697Z,0
2018-03-08T02:13:09.948Z,0
2018-03-08T02:14:09.928Z,0
2018-03-08T02:15:09.705Z,0
2018-03-08T02:16:09.651Z,0
2018-03-08T02:17:09.367Z,0
2018-03-08T02:18:09.343Z,0
2018-03-08T02:19:09.327Z,0
2018-03-08T02:20:09.839Z,0
2018-03-08T02:21:09.555Z,0
2018-03-08T02:22:09.792Z,0
2018-03-08T02:23:09.270Z,0
2018-03-08T02:24:08.999Z,0
2018-03-08T02:25:09.495Z,0
2018-03-08T02:26:09.736Z,0
2018-03-08T02:27:09.721Z,0
2018-03-08T02:28:09.446Z,0
2018-03-08T02:29:09.424Z,0
2018-03-08T02:30:09.185Z,0
2018-03-08T02:31:09.665Z,0
2018-03-08T02:32:09.388Z,0
2018-03-08T02:33:09.377Z,0
2018-03-08T02:34:09.362Z,0
2018-03-08T02:35:09.614Z,0
2018-03-08T02:36:09.348Z,0
2018-03-08T02:37:09.062Z,0
2018-03-08T02:38:09.294Z,0
2018-03-08T02:39:09.532Z,0
2018-03-08T02:40:09.520Z,0
2018-03-08T02:41:09.510Z,0
2018-03-08T02:42:08.996Z,0
2018-03-08T02:43:09.214Z,0
2018-03-08T02:44:08.938Z,0
2018-03-08T02:45:09.516Z,0
2018-03-08T02:46:08.900Z,0
2018-03-08T02:47:09.407Z,0
2018-03-08T02:48:09.133Z,0
2018-03-08T02:49:09.153Z,0
2018-03-08T02:50:09.382Z,0
2018-03-08T02:51:09.078Z,0
2018-03-08T02:52:09.064Z,0
2018-03-08T02:53:09.207Z,0
2018-03-08T02:54:08.778Z,0
2018-03-08T02:55:09.021Z,0
2018-03-08T02:56:08.758Z,0
2018-03-08T02:57:08.745Z,0
2018-03-08T02:58:09.244Z,0
2018-03-08T02:59:08.953Z,0
2018-03-08T03:00:08.959Z,0
2018-03-08T03:01:08.661Z,0
2018-03-08T03:02:08.903Z,0
2018-03-08T03:03:08.888Z,0
2018-03-08T03:04:08.365Z,0
2018-03-08T03:05:08.885Z,0
2018-03-08T03:06:09.102Z,0
2018-03-08T03:07:09.076Z,0
2018-03-08T03:08:09.064Z,0
2018-03-08T03:09:08.792Z,0
2018-03-08T03:10:08.640Z,0
2018-03-08T03:11:08.242Z,0
2018-03-08T03:12:08.757Z,0
2018-03-08T03:13:08.722Z,0
2018-03-08T03:14:08.968Z,0
2018-03-08T03:15:07.921Z,0
2018-03-08T03:16:08.677Z,0
2018-03-08T03:17:08.423Z,0
2018-03-08T03:18:08.644Z,0
2018-03-08T03:19:08.625Z,0
2018-03-08T03:20:08.348Z,0
2018-03-08T03:21:08.337Z,0
2018-03-08T03:22:08.566Z,0
2018-03-08T03:23:08.823Z,0
2018-03-08T03:24:08.558Z,0
2018-03-08T03:25:08.275Z,0
2018-03-08T03:26:08.506Z,0
2018-03-08T03:27:08.236Z,0
2018-03-08T03:28:08.755Z,0
2018-03-08T03:29:08.463Z,0
2018-03-08T03:30:08.196Z,0
2018-03-08T03:31:08.706Z,0
2018-03-08T03:32:08.668Z,0
2018-03-08T03:33:08.140Z,0
2018-03-08T03:34:08.125Z,0
2018-03-08T03:35:08.116Z,0
2018-03-08T03:36:08.098Z,0
2018-03-08T03:37:08.090Z,0
2018-03-08T03:38:08.067Z,0
2018-03-08T03:39:08.048Z,0
2018-03-08T03:40:07.774Z,0
2018-03-08T03:41:08.009Z,0
2018-03-08T03:42:08.002Z,0
2018-03-08T03:43:08.499Z,0
2018-03-08T03:44:08.485Z,0
2018-03-08T03:45:08.213Z,0
2018-03-08T03:46:07.673Z,0
2018-03-08T03:47:08.172Z,0
2018-03-08T03:48:07.898Z,0
2018-03-08T03:49:08.143Z,0
2018-03-08T03:50:08.127Z,0
2018-03-08T03:51:07.851Z,0
2018-03-08T03:52:07.833Z,0
2018-03-08T03:53:08.076Z,0
2018-03-08T03:54:08.059Z,0
2018-03-08T03:55:07.783Z,0
2018-03-08T03:56:07.779Z,0
2018-03-08T03:57:08.014Z,0
2018-03-08T03:58:07.996Z,0
2018-03-08T03:59:08.242Z,0
2018-03-08T04:00:08.233Z,0
2018-03-08T04:01:07.432Z,0
2018-03-08T04:02:07.679Z,0
2018-03-08T04:03:08.176Z,0
2018-03-08T04:04:08.209Z,0
2018-03-08T04:05:07.885Z,0
2018-03-08T04:06:07.872Z,0
2018-03-08T04:07:07.859Z,0
2018-03-08T04:08:07.578Z,0
2018-03-08T04:09:07.835Z,0
2018-03-08T04:10:08.060Z,0
2018-03-08T04:11:07.804Z,0
2018-03-08T04:12:07.777Z,0
2018-03-08T04:13:07.763Z,0
2018-03-08T04:14:07.747Z,0
2018-03-08T04:15:07.988Z,0
2018-03-08T04:16:07.448Z,0
2018-03-08T04:17:07.691Z,0
2018-03-08T04:18:07.161Z,0
2018-03-08T04:19:07.394Z,0
2018-03-08T04:20:07.905Z,0
2018-03-08T04:21:07.367Z,0
2018-03-08T04:22:07.093Z,0
2018-03-08T04:23:07.331Z,0
2018-03-08T04:24:07.573Z,0
2018-03-08T04:25:07.304Z,0
2018-03-08T04:26:07.813Z,0
2018-03-08T04:27:07.531Z,0
2018-03-08T04:28:07.783Z,0
2018-03-08T04:29:07.499Z,0
2018-03-08T04:30:07.745Z,0
2018-03-08T04:31:07.206Z,0
2018-03-08T04:32:07.446Z,0
2018-03-08T04:33:07.436Z,0
2018-03-08T04:34:07.671Z,0
2018-03-08T04:35:07.409Z,0
2018-03-08T04:36:07.383Z,0
2018-03-08T04:37:07.106Z,0
2018-03-08T04:38:07.362Z,0
2018-03-08T04:39:07.338Z,0
2018-03-08T04:40:07.313Z,0
2018-03-08T04:41:06.786Z,0
2018-03-08T04:42:07.546Z,0
2018-03-08T04:43:06.756Z,0
2018-03-08T04:44:07.246Z,0
2018-03-08T04:45:07.506Z,0
2018-03-08T04:46:07.482Z,0
2018-03-08T04:47:07.459Z,0
2018-03-08T04:48:07.199Z,0
2018-03-08T04:49:07.290Z,0
2018-03-08T04:50:06.898Z,0
2018-03-08T04:51:06.877Z,0
2018-03-08T04:52:07.383Z,0
2018-03-08T04:53:07.100Z,0
2018-03-08T04:54:07.091Z,0
2018-03-08T04:55:06.816Z,0
2018-03-08T04:56:07.057Z,0
2018-03-08T04:57:07.301Z,0
2018-03-08T04:58:07.029Z,0
2018-03-08T04:59:07.262Z,0
2018-03-08T05:00:06.989Z,0
2018-03-08T05:01:06.722Z,0
2018-03-08T05:02:06.956Z,0
2018-03-08T05:03:06.683Z,0
2018-03-08T05:04:07.189Z,0
2018-03-08T05:05:07.167Z,0
2018-03-08T05:06:07.152Z,0
2018-03-08T05:07:06.875Z,0
2018-03-08T05:08:06.875Z,0
2018-03-08T05:09:06.588Z,0
2018-03-08T05:10:07.213Z,0
2018-03-08T05:11:06.553Z,0
2018-03-08T05:12:06.795Z,0
2018-03-08T05:13:06.520Z,0
2018-03-08T05:14:07.026Z,0
2018-03-08T05:15:07.006Z,0
2018-03-08T05:16:06.224Z,0
2018-03-08T05:17:06.199Z,0
2018-03-08T05:18:06.443Z,0
2018-03-08T05:19:06.957Z,0
2018-03-08T05:20:06.668Z,0
2018-03-08T05:21:06.904Z,0
2018-03-08T05:22:06.631Z,0
2018-03-08T05:23:06.871Z,0
2018-03-08T05:24:06.857Z,0
2018-03-08T05:25:06.847Z,0
2018-03-08T05:26:06.571Z,0
2018-03-08T05:27:06.559Z,0
2018-03-08T05:28:06.540Z,0
2018-03-08T05:29:06.258Z,0
2018-03-08T05:30:06.769Z,0
2018-03-08T05:31:06.507Z,0
2018-03-08T05:32:06.209Z,0
2018-03-08T05:33:06.480Z,0
2018-03-08T05:34:06.691Z,0
2018-03-08T05:35:06.491Z,0
2018-03-08T05:36:06.143Z,0
2018-03-08T05:37:06.405Z,0
2018-03-08T05:38:06.629Z,0
2018-03-08T05:39:06.615Z,0
2018-03-08T05:40:06.161Z,0
2018-03-08T05:41:06.580Z,0
2018-03-08T05:42:05.526Z,0
2018-03-08T05:43:05.774Z,0
2018-03-08T05:44:06.275Z,0
2018-03-08T05:45:06.002Z,0
2018-03-08T05:46:05.987Z,0
2018-03-08T05:47:06.227Z,0
2018-03-08T05:48:06.200Z,0
2018-03-08T05:49:05.928Z,0
2018-03-08T05:50:06.165Z,0
2018-03-08T05:51:06.473Z,0
2018-03-08T05:52:06.405Z,5
2018-03-08T05:53:06.121Z,5
2018-03-08T05:54:06.105Z,5
2018-03-08T05:55:06.366Z,5
2018-03-08T05:56:06.487Z,5
2018-03-08T05:57:06.310Z,5
2018-03-08T05:58:06.296Z,5
2018-03-08T05:59:06.027Z,10
2018-03-08T06:00:05.746Z,10
2018-03-08T06:01:06.292Z,10
2018-03-08T06:02:06.229Z,10
2018-03-08T06:03:06.215Z,15
2018-03-08T06:04:05.678Z,15
2018-03-08T06:05:05.152Z,15
2018-03-08T06:06:05.397Z,15
2018-03-08T06:07:05.888Z,15
2018-03-08T06:08:06.137Z,20
2018-03-08T06:09:05.859Z,20
2018-03-08T06:10:06.101Z,20
2018-03-08T06:11:05.828Z,25
2018-03-08T06:12:05.296Z,30
2018-03-08T06:13:05.794Z,30
2018-03-08T06:14:05.519Z,35
2018-03-08T06:15:05.497Z,35
2018-03-08T06:16:05.745Z,35
2018-03-08T06:17:05.732Z,40
2018-03-08T06:18:05.710Z,40
2018-03-08T06:19:05.702Z,45
2018-03-08T06:20:05.670Z,45
2018-03-08T06:21:05.403Z,50
2018-03-08T06:22:05.642Z,50
2018-03-08T06:23:05.629Z,55
2018-03-08T06:24:04.835Z,55
2018-03-08T06:25:05.856Z,55
2018-03-08T06:26:05.057Z,55
2018-03-08T06:27:05.818Z,55
2018-03-08T06:28:05.809Z,60
2018-03-08T06:29:05.530Z,65
2018-03-08T06:30:05.517Z,70
2018-03-08T06:31:05.237Z,70
2018-03-08T06:32:05.222Z,70
2018-03-08T06:33:05.463Z,70
2018-03-08T06:34:04.933Z,65
2018-03-08T06:35:05.180Z,65
2018-03-08T06:36:04.898Z,75
2018-03-08T06:37:05.143Z,75
2018-03-08T06:38:05.381Z,75
2018-03-08T06:39:05.168Z,80
2018-03-08T06:40:05.350Z,75
2018-03-08T06:41:05.069Z,80
2018-03-08T06:42:05.068Z,90
2018-03-08T06:43:04.786Z,95
2018-03-08T06:44:05.296Z,100
2018-03-08T06:45:05.263Z,105
2018-03-08T06:46:05.244Z,95
2018-03-08T06:47:04.718Z,90
2018-03-08T06:48:05.218Z,75
2018-03-08T06:49:05.198Z,70
2018-03-08T06:50:04.924Z,65
2018-03-08T06:51:05.178Z,65
2018-03-08T06:52:05.276Z,70
2018-03-08T06:53:05.136Z,70
2018-03-08T06:54:05.128Z,70
2018-03-08T06:55:05.113Z,75
2018-03-08T06:56:04.578Z,75
2018-03-08T06:57:04.810Z,80
2018-03-08T06:58:05.055Z,80
2018-03-08T06:59:05.296Z,85
2018-03-08T07:00:05.292Z,85
2018-03-08T07:01:04.752Z,90
2018-03-08T07:02:04.987Z,90
2018-03-08T07:03:04.206Z,90
2018-03-08T07:04:04.700Z,85
2018-03-08T07:05:04.675Z,85
2018-03-08T07:06:04.928Z,85
2018-03-08T07:07:04.390Z,85
2018-03-08T07:08:04.901Z,85
2018-03-08T07:09:04.618Z,85
2018-03-08T07:10:05.122Z,90
2018-03-08T07:11:04.591Z,90
2018-03-08T07:12:04.569Z,90
2018-03-08T07:13:04.814Z,95
2018-03-08T07:14:04.539Z,100
2018-03-08T07:15:04.775Z,95
2018-03-08T07:16:04.506Z,100
2018-03-08T07:17:04.744Z,95
2018-03-08T07:18:04.466Z,100
2018-03-08T07:19:04.457Z,110
2018-03-08T07:20:04.178Z,130
2018-03-08T07:21:04.683Z,185
2018-03-08T07:22:04.407Z,175
2018-03-08T07:23:04.645Z,180
2018-03-08T07:24:04.628Z,180
2018-03-08T07:25:04.611Z,170
2018-03-08T07:26:04.856Z,180
2018-03-08T07:27:04.326Z,160
2018-03-08T07:28:04.307Z,140
2018-03-08T07:29:04.807Z,135
2018-03-08T07:30:04.539Z,140
2018-03-08T07:31:04.257Z,150
2018-03-08T07:32:04.494Z,155
2018-03-08T07:33:04.489Z,150
2018-03-08T07:34:04.213Z,170
2018-03-08T07:35:04.449Z,130
2018-03-08T07:36:04.176Z,145
2018-03-08T07:37:03.900Z,150
2018-03-08T07:38:04.411Z,180
2018-03-08T07:39:04.382Z,185
2018-03-08T07:40:04.665Z,190
2018-03-08T07:41:04.356Z,165
2018-03-08T07:42:04.334Z,155
2018-03-08T07:43:04.060Z,135
2018-03-08T07:44:04.318Z,175
2018-03-08T07:45:04.668Z,175
2018-03-08T07:46:04.267Z,145
2018-03-08T07:47:04.540Z,130
2018-03-08T07:48:04.503Z,135
2018-03-08T07:49:04.228Z,140
2018-03-08T07:50:04.211Z,150
2018-03-08T07:51:04.195Z,185
2018-03-08T07:52:04.436Z,180
2018-03-08T07:53:03.902Z,200
2018-03-08T07:54:04.399Z,185
2018-03-08T07:55:04.391Z,170
2018-03-08T07:56:04.115Z,165
2018-03-08T07:57:03.831Z,145
2018-03-08T07:58:03.835Z,140
2018-03-08T07:59:04.333Z,155
2018-03-08T08:00:04.059Z,180
2018-03-08T08:01:04.040Z,160
2018-03-08T08:02:04.018Z,200
2018-03-08T08:03:04.009Z,185
2018-03-08T08:04:03.998Z,145
2018-03-08T08:05:03.979Z,185
2018-03-08T08:06:03.957Z,225
2018-03-08T08:07:03.952Z,225
2018-03-08T08:08:03.939Z,200
2018-03-08T08:09:03.918Z,215
2018-03-08T08:10:04.160Z,180
2018-03-08T08:11:03.625Z,200
2018-03-08T08:12:04.127Z,215
2018-03-08T08:13:03.852Z,165
2018-03-08T08:14:03.586Z,230
2018-03-08T08:15:03.830Z,200
2018-03-08T08:16:03.955Z,220
2018-03-08T08:17:04.052Z,250
2018-03-08T08:18:04.038Z,185
2018-03-08T08:19:03.768Z,175
2018-03-08T08:20:03.486Z,205
2018-03-08T08:21:03.546Z,240
2018-03-08T08:22:03.718Z,195
2018-03-08T08:23:03.695Z,225
2018-03-08T08:24:03.700Z,210
2018-03-08T08:25:03.925Z,260
2018-03-08T08:26:03.905Z,265
2018-03-08T08:27:03.641Z,260
2018-03-08T08:28:03.371Z,295
2018-03-08T08:29:03.866Z,285
2018-03-08T08:30:03.854Z,265
2018-03-08T08:31:03.576Z,245
2018-03-08T08:32:03.818Z,235
2018-03-08T08:33:03.804Z,245
2018-03-08T08:34:03.790Z,265
2018-03-08T08:35:03.515Z,265
2018-03-08T08:36:03.500Z,250
2018-03-08T08:37:03.497Z,280
2018-03-08T08:38:03.733Z,250
2018-03-08T08:39:03.716Z,265
2018-03-08T08:40:03.185Z,275
2018-03-08T08:41:03.435Z,270
2018-03-08T08:42:03.695Z,245
2018-03-08T08:43:03.137Z,210
2018-03-08T08:44:03.383Z,275
2018-03-08T08:45:03.363Z,280
2018-03-08T08:46:03.359Z,220
2018-03-08T08:47:03.082Z,230
2018-03-08T08:48:03.065Z,255
2018-03-08T08:49:03.053Z,260
2018-03-08T08:50:03.312Z,255
2018-03-08T08:51:03.031Z,275
2018-03-08T08:52:03.008Z,265
2018-03-08T08:53:03.511Z,270
2018-03-08T08:54:03.496Z,250
2018-03-08T08:55:03.216Z,240
2018-03-08T08:56:03.467Z,260
2018-03-08T08:57:02.934Z,295
2018-03-08T08:58:03.435Z,285
2018-03-08T08:59:03.170Z,265
2018-03-08T09:00:03.156Z,300
2018-03-08T09:01:03.402Z,255
2018-03-08T09:02:03.120Z,200
2018-03-08T09:03:03.101Z,210
2018-03-08T09:04:03.093Z,235
2018-03-08T09:05:03.077Z,260
2018-03-08T09:06:03.328Z,260
2018-03-08T09:07:03.050Z,285
2018-03-08T09:08:03.042Z,230
2018-03-08T09:09:03.277Z,220
2018-03-08T09:10:03.006Z,185
2018-03-08T09:11:03.245Z,185
2018-03-08T09:12:02.974Z,185
2018-03-08T09:13:02.959Z,150
2018-03-08T09:14:02.947Z,170
2018-03-08T09:15:02.936Z,175
2018-03-08T09:16:03.180Z,230
2018-03-08T09:17:02.384Z,245
2018-03-08T09:18:02.891Z,255
2018-03-08T09:19:03.141Z,240
2018-03-08T09:20:02.602Z,230
2018-03-08T09:21:03.130Z,200
2018-03-08T09:22:02.830Z,205
2018-03-08T09:23:02.813Z,205
2018-03-08T09:24:02.795Z,200
2018-03-08T09:25:02.777Z,170
2018-03-08T09:26:02.778Z,175
2018-03-08T09:27:02.492Z,150
2018-03-08T09:28:02.224Z,130
2018-03-08T09:29:02.720Z,170
2018-03-08T09:30:02.455Z,185
2018-03-08T09:31:02.434Z,160
2018-03-08T09:32:02.940Z,125
2018-03-08T09:33:02.927Z,125
2018-03-08T09:34:02.732Z,125
2018-03-08T09:35:02.384Z,170
2018-03-08T09:36:02.617Z,150
2018-03-08T09:37:02.857Z,185
2018-03-08T09:38:02.850Z,210
2018-03-08T09:39:02.564Z,235
2018-03-08T09:40:02.560Z,235
2018-03-08T09:41:02.804Z,225
2018-03-08T09:42:02.267Z,245
2018-03-08T09:43:02.785Z,275
2018-03-08T09:44:02.512Z,255
2018-03-08T09:45:02.225Z,205
2018-03-08T09:46:02.460Z,195
2018-03-08T09:47:02.462Z,240
2018-03-08T09:48:02.461Z,245
2018-03-08T09:49:02.166Z,210
2018-03-08T09:50:02.685Z,190
2018-03-08T09:51:02.650Z,215
2018-03-08T09:52:02.380Z,280
2018-03-08T09:53:02.358Z,285
2018-03-08T09:54:02.085Z,280
2018-03-08T09:55:02.593Z,290
2018-03-08T09:56:02.572Z,300
2018-03-08T09:57:02.300Z,300
2018-03-08T09:58:02.548Z,290
2018-03-08T09:59:02.546Z,250
2018-03-08T10:00:02.258Z,250
2018-03-08T10:01:02.508Z,230
2018-03-08T10:02:01.972Z,220
2018-03-08T10:03:02.211Z,210
2018-03-08T10:04:01.693Z,180
2018-03-08T10:05:01.923Z,195
2018-03-08T10:06:02.436Z,175
2018-03-08T10:07:02.168Z,145
2018-03-08T10:08:02.143Z,135
2018-03-08T10:09:01.867Z,135
2018-03-08T10:10:02.124Z,125
2018-03-08T10:11:02.364Z,120
2018-03-08T10:12:02.342Z,130
2018-03-08T10:13:02.405Z,120
2018-03-08T10:14:01.283Z,110
2018-03-08T10:15:01.789Z,115
2018-03-08T10:16:02.026Z,125
2018-03-08T10:17:01.757Z,125
2018-03-08T10:18:01.991Z,125
2018-03-08T10:19:01.727Z,125
2018-03-08T10:20:01.973Z,125
2018-03-08T10:21:01.954Z,125
2018-03-08T10:22:01.944Z,125
2018-03-08T10:23:01.933Z,125
2018-03-08T10:24:02.171Z,125
2018-03-08T10:25:02.156Z,125
2018-03-08T10:26:02.137Z,125
2018-03-08T10:27:01.865Z,130
2018-03-08T10:28:02.110Z,130
2018-03-08T10:29:01.423Z,145
2018-03-08T10:30:01.830Z,135
2018-03-08T10:31:02.071Z,145
2018-03-08T10:32:02.052Z,130
2018-03-08T10:33:01.518Z,130
2018-03-08T10:34:02.035Z,135
2018-03-08T10:35:02.008Z,145
2018-03-08T10:36:01.995Z,120
2018-03-08T10:37:01.467Z,155
2018-03-08T10:38:01.192Z,215
2018-03-08T10:39:01.698Z,175
2018-03-08T10:40:01.420Z,180
2018-03-08T10:41:02.194Z,185
2018-03-08T10:42:01.394Z,160
2018-03-08T10:43:01.899Z,140
2018-03-08T10:44:01.376Z,145
2018-03-08T10:45:01.859Z,205
2018-03-08T10:46:01.594Z,290
2018-03-08T10:47:01.838Z,315
2018-03-08T10:48:01.372Z,325
2018-03-08T10:49:09.548Z,250
2018-03-08T10:50:01.795Z,260
2018-03-08T10:51:01.781Z,325
2018-03-08T10:52:01.513Z,285
2018-03-08T10:53:01.758Z,195
2018-03-08T10:54:01.745Z,215
2018-03-08T10:55:01.213Z,275
2018-03-08T10:56:01.719Z,330
2018-03-08T10:57:01.440Z,340
2018-03-08T10:58:01.432Z,345
2018-03-08T10:59:01.416Z,195
2018-03-08T11:00:03.170Z,165
2018-03-08T11:01:01.648Z,145
2018-03-08T11:02:01.121Z,195
2018-03-08T11:03:01.366Z,180
2018-03-08T11:04:01.356Z,190
2018-03-08T11:05:01.086Z,285
2018-03-08T11:06:01.586Z,285
2018-03-08T11:07:01.055Z,290
2018-03-08T11:08:01.044Z,285
2018-03-08T11:09:01.298Z,255
2018-03-08T11:10:01.282Z,275
2018-03-08T11:11:01.007Z,240
2018-03-08T11:12:00.733Z,205
2018-03-08T11:13:01.494Z,240
2018-03-08T11:14:01.481Z,260
2018-03-08T11:15:01.478Z,230
2018-03-08T11:16:00.943Z,245
2018-03-08T11:17:01.448Z,305
2018-03-08T11:18:00.921Z,245
2018-03-08T11:19:01.417Z,195
2018-03-08T11:20:01.153Z,285
2018-03-08T11:21:01.144Z,355
2018-03-08T11:22:01.124Z,295
2018-03-08T11:23:01.376Z,300
2018-03-08T11:24:01.099Z,250
2018-03-08T11:25:01.085Z,215
2018-03-08T11:26:00.823Z,215
2018-03-08T11:27:01.338Z,205
2018-03-08T11:28:01.054Z,190
2018-03-08T11:29:01.295Z,155
2018-03-08T11:30:01.309Z,145
2018-03-08T11:31:01.007Z,195
2018-03-08T11:32:00.991Z,255
2018-03-08T11:33:01.244Z,300
2018-03-08T11:34:00.713Z,280
2018-03-08T11:35:00.706Z,350
2018-03-08T11:36:00.998Z,245
2018-03-08T11:37:01.194Z,235
2018-03-08T11:38:01.180Z,260
2018-03-08T11:39:01.165Z,295
2018-03-08T11:40:02.680Z,305
2018-03-08T11:41:01.834Z,230
2018-03-08T11:42:01.133Z,200
2018-03-08T11:43:02.468Z,170
2018-03-08T11:44:00.858Z,170
2018-03-08T11:45:00.942Z,200
2018-03-08T11:46:00.574Z,215
2018-03-08T11:47:02.162Z,205
2018-03-08T11:48:00.287Z,225
2018-03-08T11:49:00.789Z,155
2018-03-08T11:50:01.427Z,150
2018-03-08T11:51:02.276Z,170
2018-03-08T11:52:00.757Z,205
2018-03-08T11:53:00.481Z,190
2018-03-08T11:54:01.989Z,190
2018-03-08T11:55:01.418Z,175
2018-03-08T11:56:00.963Z,160
2018-03-08T11:57:00.679Z,180
2018-03-08T11:58:00.676Z,180
2018-03-08T11:59:00.144Z,150
2018-03-08T12:00:00.908Z,145
2018-03-08T12:01:00.911Z,155
2018-03-08T12:02:00.114Z,185
2018-03-08T12:03:00.617Z,235
2018-03-08T12:04:00.084Z,240
2018-03-08T12:05:00.589Z,245
2018-03-08T12:06:00.732Z,220
2018-03-08T12:07:00.307Z,250
2018-03-08T12:08:00.808Z,265
2018-03-08T12:09:00.532Z,295
2018-03-08T12:10:00.521Z,270
2018-03-08T12:11:00.566Z,300
2018-03-08T12:12:00.605Z,300
2018-03-08T12:13:00.486Z,340
2018-03-08T12:14:00.471Z,315
2018-03-08T12:15:00.462Z,275
2018-03-08T12:16:00.191Z,275
2018-03-08T12:17:00.979Z,290
2018-03-08T12:18:00.696Z,255
2018-03-08T12:19:00.157Z,245
2018-03-08T12:20:01.277Z,235
2018-03-08T12:21:00.391Z,260
2018-03-08T12:22:00.369Z,300
2018-03-08T12:23:00.367Z,345
2018-03-08T12:24:00.356Z,305
2018-03-08T12:25:00.598Z,295
2018-03-08T12:26:00.074Z,300
2018-03-08T12:27:00.318Z,295
2018-03-08T12:28:00.565Z,205
2018-03-08T12:29:00.541Z,190
2018-03-08T12:30:00.274Z,205
2018-03-08T12:31:00.263Z,180
2018-03-08T12:32:00.253Z,190
2018-03-08T12:33:00.241Z,165
2018-03-08T12:33:59.974Z,165
2018-03-08T12:35:00.219Z,235
2018-03-08T12:35:59.945Z,245
2018-03-08T12:37:00.447Z,245
2018-03-08T12:37:59.932Z,230
2018-03-08T12:39:00.166Z,250
2018-03-08T12:39:59.898Z,245
2018-03-08T12:41:00.403Z,255
2018-03-08T12:42:00.136Z,295
2018-03-08T12:43:00.368Z,335
2018-03-08T12:44:00.109Z,390
2018-03-08T12:45:00.342Z,320
2018-03-08T12:45:59.836Z,310
2018-03-08T12:46:59.813Z,315
2018-03-08T12:47:59.546Z,245
2018-03-08T12:49:00.342Z,170
2018-03-08T12:50:00.037Z,155
2018-03-08T12:51:00.014Z,220
2018-03-08T12:52:00.014Z,210
2018-03-08T12:52:59.478Z,230
2018-03-08T12:54:00.238Z,225
2018-03-08T12:55:00.228Z,250
2018-03-08T12:55:59.970Z,270
2018-03-08T12:56:59.947Z,290
2018-03-08T12:57:59.427Z,325
2018-03-08T12:59:00.182Z,350
2018-03-08T12:59:59.911Z,305
2018-03-08T13:00:59.381Z,245
2018-03-08T13:02:00.154Z,215
2018-03-08T13:03:00.150Z,190
2018-03-08T13:04:00.117Z,175
2018-03-08T13:05:00.101Z,165
2018-03-08T13:06:00.098Z,155
2018-03-08T13:06:59.583Z,150
2018-03-08T13:07:59.561Z,145
2018-03-08T13:09:00.060Z,145
2018-03-08T13:09:59.798Z,140
2018-03-08T13:11:00.039Z,130
2018-03-08T13:12:00.030Z,140
2018-03-08T13:13:00.024Z,135
2018-03-08T13:13:59.738Z,125
2018-03-08T13:14:59.732Z,140
2018-03-08T13:15:59.981Z,145
2018-03-08T13:16:59.704Z,150
2018-03-08T13:17:59.692Z,150
2018-03-08T13:18:59.681Z,135
2018-03-08T13:19:59.417Z,135
2018-03-08T13:20:59.914Z,135
2018-03-08T13:21:59.643Z,130
2018-03-08T13:22:59.631Z,140
2018-03-08T13:23:59.617Z,150
2018-03-08T13:24:59.617Z,160
2018-03-08T13:25:59.604Z,195
2018-03-08T13:26:59.586Z,180
2018-03-08T13:27:59.825Z,165
2018-03-08T13:28:59.563Z,160
2018-03-08T13:29:59.290Z,170
2018-03-08T13:30:59.792Z,175
2018-03-08T13:31:59.776Z,185
2018-03-08T13:32:59.247Z,195
2018-03-08T13:33:59.753Z,205
2018-03-08T13:34:59.492Z,210
2018-03-08T13:35:59.469Z,210
2018-03-08T13:36:59.196Z,200
2018-03-08T13:37:59.444Z,205
2018-03-08T13:38:59.472Z,215
2018-03-08T13:39:58.900Z,220
2018-03-08T13:40:59.173Z,220
2018-03-08T13:41:59.648Z,230
2018-03-08T13:42:59.379Z,220
2018-03-08T13:43:59.370Z,220
2018-03-08T13:44:59.614Z,220
2018-03-08T13:45:59.592Z,225
2018-03-08T13:46:59.587Z,230
2018-03-08T13:47:58.803Z,235
2018-03-08T13:48:59.299Z,240
2018-03-08T13:49:59.301Z,245
2018-03-08T13:50:59.016Z,255
2018-03-08T13:51:59.517Z,265
2018-03-08T13:52:59.250Z,270
2018-03-08T13:53:58.717Z,300
2018-03-08T13:54:58.970Z,290
2018-03-08T13:55:58.950Z,300
2018-03-08T13:56:59.206Z,320
2018-03-08T13:57:58.995Z,315
2018-03-08T13:58:58.916Z,315
2018-03-08T13:59:58.905Z,310
2018-03-08T14:00:59.147Z,305
2018-03-08T14:01:58.878Z,295
2018-03-08T14:02:59.403Z,305
2018-03-08T14:03:58.858Z,310
2018-03-08T14:04:58.587Z,300
2018-03-08T14:05:59.097Z,305
2018-03-08T14:06:59.092Z,290
2018-03-08T14:07:58.806Z,280
2018-03-08T14:08:59.363Z,260
2018-03-08T14:09:58.781Z,250
2018-03-08T14:10:59.023Z,290
2018-03-08T14:11:58.751Z,240
2018-03-08T14:12:59.313Z,215